sensor_id;sensor_type;location;lat;lon;timestamp;temperature;humidity
20590;DHT22;10453;50.810;12.540;2023-07-31T00:02:02;14.70;99.90
20590;DHT22;10453;50.810;12.540;2023-07-31T00:06:19;14.80;99.90
20590;DHT22;10453;50.810;12.540;2023-07-31T00:10:36;14.90;99.90
20590;DHT22;10453;50.810;12.540;2023-07-31T00:14:54;15.10;99.90
20590;DHT22;10453;50.810;12.540;2023-07-31T00:19:11;15.30;99.90
20590;DHT22;10453;50.810;12.540;2023-07-31T00:23:28;15.40;99.90
20590;DHT22;10453;50.810;12.540;2023-07-31T00:27:45;15.50;99.90
20590;DHT22;10453;50.810;12.540;2023-07-31T00:32:03;15.50;99.90
20590;DHT22;10453;50.810;12.540;2023-07-31T00:36:20;15.70;99.90
20590;DHT22;10453;50.810;12.540;2023-07-31T00:40:37;15.70;99.90
20590;DHT22;10453;50.810;12.540;2023-07-31T00:44:55;15.80;99.90
20590;DHT22;10453;50.810;12.540;2023-07-31T00:49:12;15.80;99.90
20590;DHT22;10453;50.810;12.540;2023-07-31T00:53:30;15.80;99.90
20590;DHT22;10453;50.810;12.540;2023-07-31T00:57:48;15.80;99.90
20590;DHT22;10453;50.810;12.540;2023-07-31T01:02:05;15.90;99.90
20590;DHT22;10453;50.810;12.540;2023-07-31T01:06:48;15.90;99.90
20590;DHT22;10453;50.810;12.540;2023-07-31T01:11:29;15.90;99.90
20590;DHT22;10453;50.810;12.540;2023-07-31T01:15:47;15.90;99.90
20590;DHT22;10453;50.810;12.540;2023-07-31T01:20:09;16.00;99.90
20590;DHT22;10453;50.810;12.540;2023-07-31T01:25:00;16.00;99.90
20590;DHT22;10453;50.810;12.540;2023-07-31T01:29:32;16.00;99.90
20590;DHT22;10453;50.810;12.540;2023-07-31T01:33:53;16.10;99.90
20590;DHT22;10453;50.810;12.540;2023-07-31T01:38:11;15.90;99.90
20590;DHT22;10453;50.810;12.540;2023-07-31T01:42:29;15.80;99.90
20590;DHT22;10453;50.810;12.540;2023-07-31T01:46:46;15.80;99.90
20590;DHT22;10453;50.810;12.540;2023-07-31T01:51:05;15.80;99.90
20590;DHT22;10453;50.810;12.540;2023-07-31T01:55:22;15.70;99.90
20590;DHT22;10453;50.810;12.540;2023-07-31T01:59:39;15.60;99.90
20590;DHT22;10453;50.810;12.540;2023-07-31T02:03:57;15.40;99.90
20590;DHT22;10453;50.810;12.540;2023-07-31T02:08:15;15.30;99.90
20590;DHT22;10453;50.810;12.540;2023-07-31T02:12:33;15.20;99.90
20590;DHT22;10453;50.810;12.540;2023-07-31T02:16:50;15.10;99.90
20590;DHT22;10453;50.810;12.540;2023-07-31T02:21:07;15.00;99.90
20590;DHT22;10453;50.810;12.540;2023-07-31T02:25:25;14.90;99.90
20590;DHT22;10453;50.810;12.540;2023-07-31T02:29:42;14.70;99.90
20590;DHT22;10453;50.810;12.540;2023-07-31T02:33:59;14.70;99.90
20590;DHT22;10453;50.810;12.540;2023-07-31T02:38:17;14.60;99.90
20590;DHT22;10453;50.810;12.540;2023-07-31T02:42:34;14.60;99.90
20590;DHT22;10453;50.810;12.540;2023-07-31T02:46:51;14.60;99.90
20590;DHT22;10453;50.810;12.540;2023-07-31T02:51:08;14.70;99.90
20590;DHT22;10453;50.810;12.540;2023-07-31T02:55:26;14.70;99.90
20590;DHT22;10453;50.810;12.540;2023-07-31T02:59:43;14.70;99.90
20590;DHT22;10453;50.810;12.540;2023-07-31T03:04:00;14.70;99.90
20590;DHT22;10453;50.810;12.540;2023-07-31T03:08:17;14.50;99.90
20590;DHT22;10453;50.810;12.540;2023-07-31T03:12:35;14.40;99.90
20590;DHT22;10453;50.810;12.540;2023-07-31T03:16:53;14.20;99.90
20590;DHT22;10453;50.810;12.540;2023-07-31T03:21:10;14.20;99.90
20590;DHT22;10453;50.810;12.540;2023-07-31T03:25:27;14.10;99.90
20590;DHT22;10453;50.810;12.540;2023-07-31T03:29:44;14.10;99.90
20590;DHT22;10453;50.810;12.540;2023-07-31T03:34:02;14.10;99.90
20590;DHT22;10453;50.810;12.540;2023-07-31T03:38:19;14.00;99.90
20590;DHT22;10453;50.810;12.540;2023-07-31T03:42:36;14.00;99.90
20590;DHT22;10453;50.810;12.540;2023-07-31T03:46:54;14.00;99.90
20590;DHT22;10453;50.810;12.540;2023-07-31T03:51:11;14.00;99.90
20590;DHT22;10453;50.810;12.540;2023-07-31T03:55:28;14.10;99.90
20590;DHT22;10453;50.810;12.540;2023-07-31T03:59:45;14.10;99.90
20590;DHT22;10453;50.810;12.540;2023-07-31T04:04:03;14.10;99.90
20590;DHT22;10453;50.810;12.540;2023-07-31T04:08:20;14.10;99.90
20590;DHT22;10453;50.810;12.540;2023-07-31T04:12:37;14.10;99.90
20590;DHT22;10453;50.810;12.540;2023-07-31T04:16:54;14.10;99.90
20590;DHT22;10453;50.810;12.540;2023-07-31T04:21:12;14.10;99.90
20590;DHT22;10453;50.810;12.540;2023-07-31T04:25:29;14.20;99.90
20590;DHT22;10453;50.810;12.540;2023-07-31T04:29:46;14.30;99.90
20590;DHT22;10453;50.810;12.540;2023-07-31T04:34:04;14.30;99.90
20590;DHT22;10453;50.810;12.540;2023-07-31T04:38:21;14.40;99.90
20590;DHT22;10453;50.810;12.540;2023-07-31T04:42:39;14.50;99.90
20590;DHT22;10453;50.810;12.540;2023-07-31T04:46:56;14.60;99.90
20590;DHT22;10453;50.810;12.540;2023-07-31T04:51:14;14.70;99.90
20590;DHT22;10453;50.810;12.540;2023-07-31T04:55:31;14.90;99.90
20590;DHT22;10453;50.810;12.540;2023-07-31T04:59:48;15.00;99.90
20590;DHT22;10453;50.810;12.540;2023-07-31T05:04:07;15.00;99.90
20590;DHT22;10453;50.810;12.540;2023-07-31T05:08:24;15.00;99.90
20590;DHT22;10453;50.810;12.540;2023-07-31T05:12:42;15.10;99.90
20590;DHT22;10453;50.810;12.540;2023-07-31T05:16:59;15.10;99.90
20590;DHT22;10453;50.810;12.540;2023-07-31T05:21:16;15.10;99.90
20590;DHT22;10453;50.810;12.540;2023-07-31T05:25:33;15.10;99.90
20590;DHT22;10453;50.810;12.540;2023-07-31T05:29:50;15.10;99.90
20590;DHT22;10453;50.810;12.540;2023-07-31T05:34:08;15.20;99.90
20590;DHT22;10453;50.810;12.540;2023-07-31T05:38:25;15.30;99.90
20590;DHT22;10453;50.810;12.540;2023-07-31T05:42:42;15.40;99.90
20590;DHT22;10453;50.810;12.540;2023-07-31T05:47:00;15.50;99.90
20590;DHT22;10453;50.810;12.540;2023-07-31T05:51:17;15.60;99.90
20590;DHT22;10453;50.810;12.540;2023-07-31T05:55:34;15.80;99.90
20590;DHT22;10453;50.810;12.540;2023-07-31T05:59:51;15.90;99.90
20590;DHT22;10453;50.810;12.540;2023-07-31T06:04:10;16.10;99.90
20590;DHT22;10453;50.810;12.540;2023-07-31T06:08:28;16.20;99.90
20590;DHT22;10453;50.810;12.540;2023-07-31T06:12:45;16.30;99.90
20590;DHT22;10453;50.810;12.540;2023-07-31T06:17:02;16.10;99.90
20590;DHT22;10453;50.810;12.540;2023-07-31T06:21:20;16.30;99.90
20590;DHT22;10453;50.810;12.540;2023-07-31T06:25:40;16.40;99.90
20590;DHT22;10453;50.810;12.540;2023-07-31T06:29:57;16.70;99.90
20590;DHT22;10453;50.810;12.540;2023-07-31T06:34:14;16.80;99.90
20590;DHT22;10453;50.810;12.540;2023-07-31T06:38:32;16.90;99.90
20590;DHT22;10453;50.810;12.540;2023-07-31T06:42:49;17.00;99.90
20590;DHT22;10453;50.810;12.540;2023-07-31T06:47:06;17.10;99.90
20590;DHT22;10453;50.810;12.540;2023-07-31T06:51:23;17.10;99.90
20590;DHT22;10453;50.810;12.540;2023-07-31T06:55:41;17.60;99.90
20590;DHT22;10453;50.810;12.540;2023-07-31T06:59:58;17.70;99.90
20590;DHT22;10453;50.810;12.540;2023-07-31T07:04:16;17.50;99.90
20590;DHT22;10453;50.810;12.540;2023-07-31T07:08:33;17.50;99.90
20590;DHT22;10453;50.810;12.540;2023-07-31T07:12:50;17.70;99.90
20590;DHT22;10453;50.810;12.540;2023-07-31T07:17:08;17.90;99.90
20590;DHT22;10453;50.810;12.540;2023-07-31T07:21:25;18.10;99.90
20590;DHT22;10453;50.810;12.540;2023-07-31T07:25:46;18.10;99.90
20590;DHT22;10453;50.810;12.540;2023-07-31T07:30:04;18.10;99.90
20590;DHT22;10453;50.810;12.540;2023-07-31T07:34:26;18.00;99.90
20590;DHT22;10453;50.810;12.540;2023-07-31T07:38:44;18.20;99.90
20590;DHT22;10453;50.810;12.540;2023-07-31T07:43:01;18.20;99.90
20590;DHT22;10453;50.810;12.540;2023-07-31T07:47:18;18.10;99.90
20590;DHT22;10453;50.810;12.540;2023-07-31T07:51:36;18.00;99.90
20590;DHT22;10453;50.810;12.540;2023-07-31T07:55:54;18.00;99.90
20590;DHT22;10453;50.810;12.540;2023-07-31T08:00:12;17.90;99.90
20590;DHT22;10453;50.810;12.540;2023-07-31T08:04:30;17.90;99.90
20590;DHT22;10453;50.810;12.540;2023-07-31T08:08:47;17.80;99.90
20590;DHT22;10453;50.810;12.540;2023-07-31T08:13:05;17.90;99.90
20590;DHT22;10453;50.810;12.540;2023-07-31T08:17:22;17.80;99.90
20590;DHT22;10453;50.810;12.540;2023-07-31T08:21:39;17.80;99.90
20590;DHT22;10453;50.810;12.540;2023-07-31T08:25:57;17.90;99.90
20590;DHT22;10453;50.810;12.540;2023-07-31T08:30:14;18.00;99.90
20590;DHT22;10453;50.810;12.540;2023-07-31T08:34:31;17.90;99.90
20590;DHT22;10453;50.810;12.540;2023-07-31T08:38:49;18.00;99.90
20590;DHT22;10453;50.810;12.540;2023-07-31T08:43:08;18.20;99.90
20590;DHT22;10453;50.810;12.540;2023-07-31T08:47:26;18.40;99.90
20590;DHT22;10453;50.810;12.540;2023-07-31T08:51:46;18.30;99.90
20590;DHT22;10453;50.810;12.540;2023-07-31T08:56:07;18.50;99.90
20590;DHT22;10453;50.810;12.540;2023-07-31T09:00:25;18.60;99.90
20590;DHT22;10453;50.810;12.540;2023-07-31T09:04:43;18.70;99.90
20590;DHT22;10453;50.810;12.540;2023-07-31T09:09:01;19.00;99.90
20590;DHT22;10453;50.810;12.540;2023-07-31T09:13:21;19.10;99.90
20590;DHT22;10453;50.810;12.540;2023-07-31T09:17:38;18.90;99.90
20590;DHT22;10453;50.810;12.540;2023-07-31T09:21:55;18.80;99.90
20590;DHT22;10453;50.810;12.540;2023-07-31T09:26:32;18.90;99.90
20590;DHT22;10453;50.810;12.540;2023-07-31T09:30:51;19.30;99.90
20590;DHT22;10453;50.810;12.540;2023-07-31T09:35:31;19.50;99.90
20590;DHT22;10453;50.810;12.540;2023-07-31T09:39:49;19.70;99.90
20590;DHT22;10453;50.810;12.540;2023-07-31T09:44:11;19.90;99.90
20590;DHT22;10453;50.810;12.540;2023-07-31T09:48:29;20.00;99.90
20590;DHT22;10453;50.810;12.540;2023-07-31T09:52:47;19.80;99.90
20590;DHT22;10453;50.810;12.540;2023-07-31T09:57:05;19.90;99.90
20590;DHT22;10453;50.810;12.540;2023-07-31T10:01:23;19.50;99.90
20590;DHT22;10453;50.810;12.540;2023-07-31T10:05:42;19.50;99.90
20590;DHT22;10453;50.810;12.540;2023-07-31T10:10:04;19.80;99.90
20590;DHT22;10453;50.810;12.540;2023-07-31T10:14:21;19.70;99.90
20590;DHT22;10453;50.810;12.540;2023-07-31T10:18:41;19.60;99.90
20590;DHT22;10453;50.810;12.540;2023-07-31T10:22:59;19.40;99.90
20590;DHT22;10453;50.810;12.540;2023-07-31T10:27:17;19.30;99.90
20590;DHT22;10453;50.810;12.540;2023-07-31T10:31:35;19.60;99.90
20590;DHT22;10453;50.810;12.540;2023-07-31T10:36:12;20.50;99.90
20590;DHT22;10453;50.810;12.540;2023-07-31T10:40:30;22.20;99.90
20590;DHT22;10453;50.810;12.540;2023-07-31T10:44:47;21.80;99.90
20590;DHT22;10453;50.810;12.540;2023-07-31T10:49:04;21.30;99.90
20590;DHT22;10453;50.810;12.540;2023-07-31T10:53:32;21.40;99.90
20590;DHT22;10453;50.810;12.540;2023-07-31T10:57:50;20.90;99.90
20590;DHT22;10453;50.810;12.540;2023-07-31T11:02:26;20.70;99.90
20590;DHT22;10453;50.810;12.540;2023-07-31T11:06:59;20.70;99.90
20590;DHT22;10453;50.810;12.540;2023-07-31T11:11:18;20.70;99.90
20590;DHT22;10453;50.810;12.540;2023-07-31T11:15:36;20.70;99.90
20590;DHT22;10453;50.810;12.540;2023-07-31T11:19:53;20.60;99.90
20590;DHT22;10453;50.810;12.540;2023-07-31T11:24:12;20.30;99.90
20590;DHT22;10453;50.810;12.540;2023-07-31T11:28:32;20.30;99.90
20590;DHT22;10453;50.810;12.540;2023-07-31T11:32:50;20.40;99.90
20590;DHT22;10453;50.810;12.540;2023-07-31T11:37:09;20.60;99.90
20590;DHT22;10453;50.810;12.540;2023-07-31T11:41:29;21.10;99.90
20590;DHT22;10453;50.810;12.540;2023-07-31T11:45:53;21.30;99.90
20590;DHT22;10453;50.810;12.540;2023-07-31T11:50:11;21.30;99.90
20590;DHT22;10453;50.810;12.540;2023-07-31T11:54:29;21.40;99.90
20590;DHT22;10453;50.810;12.540;2023-07-31T11:58:53;21.60;99.90
20590;DHT22;10453;50.810;12.540;2023-07-31T12:03:10;22.00;99.90
20590;DHT22;10453;50.810;12.540;2023-07-31T12:07:43;21.90;99.90
20590;DHT22;10453;50.810;12.540;2023-07-31T12:12:00;21.60;99.90
20590;DHT22;10453;50.810;12.540;2023-07-31T12:16:17;21.60;99.90
20590;DHT22;10453;50.810;12.540;2023-07-31T12:20:35;21.40;99.90
20590;DHT22;10453;50.810;12.540;2023-07-31T12:24:54;21.40;99.90
20590;DHT22;10453;50.810;12.540;2023-07-31T12:29:11;21.50;99.90
20590;DHT22;10453;50.810;12.540;2023-07-31T12:33:32;21.90;99.90
20590;DHT22;10453;50.810;12.540;2023-07-31T12:37:50;21.80;99.90
20590;DHT22;10453;50.810;12.540;2023-07-31T12:42:07;21.70;99.90
20590;DHT22;10453;50.810;12.540;2023-07-31T12:46:24;21.90;99.90
20590;DHT22;10453;50.810;12.540;2023-07-31T12:50:42;22.20;99.90
20590;DHT22;10453;50.810;12.540;2023-07-31T12:55:01;22.60;99.90
20590;DHT22;10453;50.810;12.540;2023-07-31T12:59:18;22.60;99.90
20590;DHT22;10453;50.810;12.540;2023-07-31T13:03:35;22.30;99.90
20590;DHT22;10453;50.810;12.540;2023-07-31T13:07:53;22.70;99.90
20590;DHT22;10453;50.810;12.540;2023-07-31T13:12:10;23.40;99.90
20590;DHT22;10453;50.810;12.540;2023-07-31T13:16:27;23.30;99.90
20590;DHT22;10453;50.810;12.540;2023-07-31T13:20:45;23.70;99.90
20590;DHT22;10453;50.810;12.540;2023-07-31T13:25:02;23.30;99.90
20590;DHT22;10453;50.810;12.540;2023-07-31T13:29:20;23.10;99.90
20590;DHT22;10453;50.810;12.540;2023-07-31T13:33:38;23.00;99.90
20590;DHT22;10453;50.810;12.540;2023-07-31T13:38:00;22.60;99.90
20590;DHT22;10453;50.810;12.540;2023-07-31T13:42:17;22.20;99.90
20590;DHT22;10453;50.810;12.540;2023-07-31T13:46:34;22.60;99.90
20590;DHT22;10453;50.810;12.540;2023-07-31T13:50:51;22.90;99.90
20590;DHT22;10453;50.810;12.540;2023-07-31T13:55:09;22.70;99.90
20590;DHT22;10453;50.810;12.540;2023-07-31T13:59:26;23.20;99.90
20590;DHT22;10453;50.810;12.540;2023-07-31T14:03:44;23.70;99.90
20590;DHT22;10453;50.810;12.540;2023-07-31T14:08:03;24.20;99.90
20590;DHT22;10453;50.810;12.540;2023-07-31T14:12:21;24.70;99.90
20590;DHT22;10453;50.810;12.540;2023-07-31T14:16:58;25.10;99.90
20590;DHT22;10453;50.810;12.540;2023-07-31T14:21:16;25.50;99.90
20590;DHT22;10453;50.810;12.540;2023-07-31T14:25:33;22.70;99.90
20590;DHT22;10453;50.810;12.540;2023-07-31T14:29:50;22.20;99.90
20590;DHT22;10453;50.810;12.540;2023-07-31T14:34:08;22.20;99.90
20590;DHT22;10453;50.810;12.540;2023-07-31T14:38:25;21.60;99.90
20590;DHT22;10453;50.810;12.540;2023-07-31T14:42:42;21.60;99.90
20590;DHT22;10453;50.810;12.540;2023-07-31T14:47:00;21.80;99.90
20590;DHT22;10453;50.810;12.540;2023-07-31T14:51:18;21.60;99.90
20590;DHT22;10453;50.810;12.540;2023-07-31T14:55:35;21.40;99.90
20590;DHT22;10453;50.810;12.540;2023-07-31T14:59:52;21.20;99.90
20590;DHT22;10453;50.810;12.540;2023-07-31T15:04:10;21.00;99.90
20590;DHT22;10453;50.810;12.540;2023-07-31T15:08:27;20.90;99.90
20590;DHT22;10453;50.810;12.540;2023-07-31T15:12:44;21.10;99.90
20590;DHT22;10453;50.810;12.540;2023-07-31T15:17:01;20.90;99.90
20590;DHT22;10453;50.810;12.540;2023-07-31T15:21:18;20.80;99.90
20590;DHT22;10453;50.810;12.540;2023-07-31T15:25:36;20.90;99.90
20590;DHT22;10453;50.810;12.540;2023-07-31T15:29:53;20.80;99.90
20590;DHT22;10453;50.810;12.540;2023-07-31T15:34:13;20.90;99.90
20590;DHT22;10453;50.810;12.540;2023-07-31T15:38:30;20.90;99.90
20590;DHT22;10453;50.810;12.540;2023-07-31T15:42:47;20.80;99.90
20590;DHT22;10453;50.810;12.540;2023-07-31T15:47:05;20.90;99.90
20590;DHT22;10453;50.810;12.540;2023-07-31T15:51:23;20.90;99.90
20590;DHT22;10453;50.810;12.540;2023-07-31T15:55:40;20.80;99.90
20590;DHT22;10453;50.810;12.540;2023-07-31T15:59:57;20.70;99.90
20590;DHT22;10453;50.810;12.540;2023-07-31T16:04:15;20.70;99.90
20590;DHT22;10453;50.810;12.540;2023-07-31T16:08:32;20.70;99.90
20590;DHT22;10453;50.810;12.540;2023-07-31T16:12:49;20.60;99.90
20590;DHT22;10453;50.810;12.540;2023-07-31T16:17:06;20.60;99.90
20590;DHT22;10453;50.810;12.540;2023-07-31T16:21:24;20.70;99.90
20590;DHT22;10453;50.810;12.540;2023-07-31T16:25:42;20.60;99.90
20590;DHT22;10453;50.810;12.540;2023-07-31T16:29:59;20.50;99.90
20590;DHT22;10453;50.810;12.540;2023-07-31T16:34:17;20.60;99.90
20590;DHT22;10453;50.810;12.540;2023-07-31T16:38:35;20.70;99.90
20590;DHT22;10453;50.810;12.540;2023-07-31T16:42:52;20.70;99.90
20590;DHT22;10453;50.810;12.540;2023-07-31T16:47:09;20.70;99.90
20590;DHT22;10453;50.810;12.540;2023-07-31T16:51:26;20.70;99.90
20590;DHT22;10453;50.810;12.540;2023-07-31T16:55:44;20.70;99.90
20590;DHT22;10453;50.810;12.540;2023-07-31T17:00:01;20.70;99.90
20590;DHT22;10453;50.810;12.540;2023-07-31T17:04:19;20.80;99.90
20590;DHT22;10453;50.810;12.540;2023-07-31T17:08:36;20.80;99.90
20590;DHT22;10453;50.810;12.540;2023-07-31T17:12:54;20.90;99.90
20590;DHT22;10453;50.810;12.540;2023-07-31T17:17:11;20.90;99.90
20590;DHT22;10453;50.810;12.540;2023-07-31T17:21:28;20.80;99.90
20590;DHT22;10453;50.810;12.540;2023-07-31T17:25:46;21.00;99.90
20590;DHT22;10453;50.810;12.540;2023-07-31T17:30:03;20.90;99.90
20590;DHT22;10453;50.810;12.540;2023-07-31T17:34:21;20.80;99.90
20590;DHT22;10453;50.810;12.540;2023-07-31T17:38:38;20.90;99.90
20590;DHT22;10453;50.810;12.540;2023-07-31T17:42:57;20.90;99.90
20590;DHT22;10453;50.810;12.540;2023-07-31T17:47:15;20.90;99.90
20590;DHT22;10453;50.810;12.540;2023-07-31T17:51:33;20.90;99.90
20590;DHT22;10453;50.810;12.540;2023-07-31T17:55:53;20.90;99.90
20590;DHT22;10453;50.810;12.540;2023-07-31T18:00:11;20.90;99.90
20590;DHT22;10453;50.810;12.540;2023-07-31T18:04:29;20.80;99.90
20590;DHT22;10453;50.810;12.540;2023-07-31T18:08:46;20.70;99.90
20590;DHT22;10453;50.810;12.540;2023-07-31T18:13:03;20.70;99.90
20590;DHT22;10453;50.810;12.540;2023-07-31T18:17:21;20.60;99.90
20590;DHT22;10453;50.810;12.540;2023-07-31T18:21:38;20.50;99.90
20590;DHT22;10453;50.810;12.540;2023-07-31T18:25:56;20.40;99.90
20590;DHT22;10453;50.810;12.540;2023-07-31T18:30:14;20.20;99.90
20590;DHT22;10453;50.810;12.540;2023-07-31T18:34:32;20.20;99.90
20590;DHT22;10453;50.810;12.540;2023-07-31T18:38:50;20.10;99.90
20590;DHT22;10453;50.810;12.540;2023-07-31T18:43:07;20.00;99.90
20590;DHT22;10453;50.810;12.540;2023-07-31T18:47:25;20.00;99.90
20590;DHT22;10453;50.810;12.540;2023-07-31T18:51:43;20.10;99.90
20590;DHT22;10453;50.810;12.540;2023-07-31T18:56:04;20.10;99.90
20590;DHT22;10453;50.810;12.540;2023-07-31T19:00:21;20.10;99.90
20590;DHT22;10453;50.810;12.540;2023-07-31T19:04:39;20.10;99.90
20590;DHT22;10453;50.810;12.540;2023-07-31T19:08:56;20.10;99.90
20590;DHT22;10453;50.810;12.540;2023-07-31T19:13:15;20.10;99.90
20590;DHT22;10453;50.810;12.540;2023-07-31T19:17:33;20.00;99.90
20590;DHT22;10453;50.810;12.540;2023-07-31T19:21:52;20.10;99.90
20590;DHT22;10453;50.810;12.540;2023-07-31T19:26:10;20.00;99.90
20590;DHT22;10453;50.810;12.540;2023-07-31T19:30:27;20.00;99.90
20590;DHT22;10453;50.810;12.540;2023-07-31T19:34:45;20.00;99.90
20590;DHT22;10453;50.810;12.540;2023-07-31T19:39:03;20.00;99.90
20590;DHT22;10453;50.810;12.540;2023-07-31T19:43:20;19.90;99.90
20590;DHT22;10453;50.810;12.540;2023-07-31T19:47:37;19.90;99.90
20590;DHT22;10453;50.810;12.540;2023-07-31T19:51:55;19.80;99.90
20590;DHT22;10453;50.810;12.540;2023-07-31T19:56:13;19.90;99.90
20590;DHT22;10453;50.810;12.540;2023-07-31T20:00:30;19.90;99.90
20590;DHT22;10453;50.810;12.540;2023-07-31T20:04:48;19.80;99.90
20590;DHT22;10453;50.810;12.540;2023-07-31T20:09:05;19.80;99.90
20590;DHT22;10453;50.810;12.540;2023-07-31T20:13:23;19.70;99.90
20590;DHT22;10453;50.810;12.540;2023-07-31T20:17:40;19.60;99.90
20590;DHT22;10453;50.810;12.540;2023-07-31T20:21:58;19.50;99.90
20590;DHT22;10453;50.810;12.540;2023-07-31T20:26:15;19.60;99.90
20590;DHT22;10453;50.810;12.540;2023-07-31T20:30:33;19.60;99.90
20590;DHT22;10453;50.810;12.540;2023-07-31T20:34:50;19.60;99.90
20590;DHT22;10453;50.810;12.540;2023-07-31T20:39:08;19.70;99.90
20590;DHT22;10453;50.810;12.540;2023-07-31T20:43:26;19.60;99.90
20590;DHT22;10453;50.810;12.540;2023-07-31T20:47:43;19.60;99.90
20590;DHT22;10453;50.810;12.540;2023-07-31T20:52:02;19.50;99.90
20590;DHT22;10453;50.810;12.540;2023-07-31T20:56:19;19.50;99.90
20590;DHT22;10453;50.810;12.540;2023-07-31T21:00:37;19.50;99.90
20590;DHT22;10453;50.810;12.540;2023-07-31T21:04:56;19.50;99.90
20590;DHT22;10453;50.810;12.540;2023-07-31T21:09:13;19.50;99.90
20590;DHT22;10453;50.810;12.540;2023-07-31T21:13:31;19.50;99.90
20590;DHT22;10453;50.810;12.540;2023-07-31T21:17:48;19.40;99.90
20590;DHT22;10453;50.810;12.540;2023-07-31T21:22:05;19.20;99.90
20590;DHT22;10453;50.810;12.540;2023-07-31T21:26:23;19.00;99.90
20590;DHT22;10453;50.810;12.540;2023-07-31T21:30:40;18.90;99.90
20590;DHT22;10453;50.810;12.540;2023-07-31T21:34:57;18.70;99.90
20590;DHT22;10453;50.810;12.540;2023-07-31T21:39:14;18.40;99.90
20590;DHT22;10453;50.810;12.540;2023-07-31T21:43:32;18.10;99.90
20590;DHT22;10453;50.810;12.540;2023-07-31T21:47:49;18.00;99.90
20590;DHT22;10453;50.810;12.540;2023-07-31T21:52:07;17.80;99.90
20590;DHT22;10453;50.810;12.540;2023-07-31T21:56:24;17.80;99.90
20590;DHT22;10453;50.810;12.540;2023-07-31T22:00:42;17.70;99.90
20590;DHT22;10453;50.810;12.540;2023-07-31T22:04:59;17.60;99.90
20590;DHT22;10453;50.810;12.540;2023-07-31T22:09:16;17.50;99.90
20590;DHT22;10453;50.810;12.540;2023-07-31T22:13:33;17.40;99.90
20590;DHT22;10453;50.810;12.540;2023-07-31T22:17:51;17.30;99.90
20590;DHT22;10453;50.810;12.540;2023-07-31T22:22:08;17.20;99.90
20590;DHT22;10453;50.810;12.540;2023-07-31T22:26:26;17.20;99.90
20590;DHT22;10453;50.810;12.540;2023-07-31T22:30:43;17.00;99.90
20590;DHT22;10453;50.810;12.540;2023-07-31T22:35:00;16.80;99.90
20590;DHT22;10453;50.810;12.540;2023-07-31T22:39:18;16.70;99.90
20590;DHT22;10453;50.810;12.540;2023-07-31T22:43:35;16.50;99.90
20590;DHT22;10453;50.810;12.540;2023-07-31T22:47:52;16.40;99.90
20590;DHT22;10453;50.810;12.540;2023-07-31T22:52:10;16.40;99.90
20590;DHT22;10453;50.810;12.540;2023-07-31T22:56:27;16.40;99.90
20590;DHT22;10453;50.810;12.540;2023-07-31T23:00:44;16.30;99.90
20590;DHT22;10453;50.810;12.540;2023-07-31T23:05:01;16.30;99.90
20590;DHT22;10453;50.810;12.540;2023-07-31T23:09:19;16.40;99.90
20590;DHT22;10453;50.810;12.540;2023-07-31T23:13:37;16.40;99.90
20590;DHT22;10453;50.810;12.540;2023-07-31T23:17:54;16.40;99.90
20590;DHT22;10453;50.810;12.540;2023-07-31T23:22:11;16.40;99.90
20590;DHT22;10453;50.810;12.540;2023-07-31T23:26:29;16.30;99.90
20590;DHT22;10453;50.810;12.540;2023-07-31T23:30:47;16.40;99.90
20590;DHT22;10453;50.810;12.540;2023-07-31T23:35:05;16.50;99.90
20590;DHT22;10453;50.810;12.540;2023-07-31T23:39:22;16.40;99.90
20590;DHT22;10453;50.810;12.540;2023-07-31T23:43:39;16.40;99.90
20590;DHT22;10453;50.810;12.540;2023-07-31T23:47:57;16.30;99.90
20590;DHT22;10453;50.810;12.540;2023-07-31T23:52:14;16.40;99.90
20590;DHT22;10453;50.810;12.540;2023-07-31T23:56:32;16.50;99.90
